Time;durP1;ratioP1;P1;durP2;ratioP2;P2;SDS_P1;SDS_P2;PMS_P1;PMS_P2;Temp;Humidity;BMP_temperature;BMP_pressure;BME280_temperature;BME280_humidity;BME280_pressure;Samples;Min_cycle;Max_cycle;Signal;HPM_P1;HPM_P2
2022/07/02 00:00:09;;;;;;;6.72;3.47;;;13.40;99.90;;;;;;4957566;28;20376;-87
2022/07/02 00:02:36;;;;;;;4.50;3.47;;;13.40;99.90;;;;;;4942823;28;20054;-87
2022/07/02 00:05:05;;;;;;;5.25;3.13;;;13.40;99.90;;;;;;4941202;28;20101;-87
2022/07/02 00:07:31;;;;;;;5.13;3.65;;;13.40;99.90;;;;;;4959319;28;20047;-87
2022/07/02 00:09:58;;;;;;;5.43;2.97;;;13.40;99.90;;;;;;4942737;28;20058;-87
2022/07/02 00:12:26;;;;;;;4.30;3.35;;;13.30;99.90;;;;;;4941136;28;20097;-87
2022/07/02 00:14:54;;;;;;;6.70;3.30;;;13.40;99.90;;;;;;4953003;28;20566;-87
2022/07/02 00:17:32;;;;;;;4.05;3.00;;;13.30;99.90;;;;;;4942412;28;20094;-87
2022/07/02 00:20:01;;;;;;;9.98;3.67;;;13.30;99.90;;;;;;4941809;28;20051;-88
2022/07/02 00:22:27;;;;;;;4.10;3.38;;;13.30;99.90;;;;;;4942628;28;20043;-87
2022/07/02 00:24:56;;;;;;;5.15;3.42;;;13.20;99.90;;;;;;4945051;28;20401;-87
2022/07/02 00:27:23;;;;;;;5.53;3.40;;;13.10;99.90;;;;;;4942077;28;20047;-87
2022/07/02 00:30:02;;;;;;;6.82;3.40;;;13.20;99.90;;;;;;4941190;28;20491;-87
2022/07/02 00:32:30;;;;;;;7.70;3.28;;;13.10;99.90;;;;;;4941810;28;20463;-87
2022/07/02 00:34:57;;;;;;;5.60;3.55;;;13.00;99.90;;;;;;4944796;28;20507;-87
2022/07/02 00:37:26;;;;;;;6.10;3.45;;;13.10;99.90;;;;;;4942245;28;20035;-87
2022/07/02 00:39:53;;;;;;;7.28;3.13;;;13.00;99.90;;;;;;4957288;28;20042;-87
2022/07/02 00:42:20;;;;;;;5.35;3.42;;;13.00;99.90;;;;;;4940919;28;20043;-86
2022/07/02 00:44:47;;;;;;;5.93;3.47;;;13.00;99.90;;;;;;4947254;28;20518;-86
2022/07/02 00:47:14;;;;;;;6.28;3.60;;;12.90;99.90;;;;;;4941320;28;20039;-87
2022/07/02 00:49:40;;;;;;;5.47;3.22;;;13.00;99.90;;;;;;4938000;28;20071;-87
2022/07/02 00:52:08;;;;;;;5.95;3.38;;;12.90;99.90;;;;;;4940825;28;20054;-87
2022/07/02 00:54:35;;;;;;;5.53;3.42;;;12.90;99.90;;;;;;4941580;28;20364;-86
2022/07/02 00:57:02;;;;;;;5.05;3.30;;;12.90;99.90;;;;;;4957029;28;20038;-86
2022/07/02 00:59:29;;;;;;;7.10;3.63;;;12.80;99.90;;;;;;4936843;28;20035;-86
2022/07/02 01:01:55;;;;;;;6.07;3.80;;;12.80;99.90;;;;;;4940954;28;20354;-87
2022/07/02 01:04:23;;;;;;;9.55;3.67;;;12.80;99.90;;;;;;4957674;28;20035;-87
2022/07/02 01:06:50;;;;;;;6.93;3.97;;;12.80;99.90;;;;;;4940706;28;20031;-87
2022/07/02 01:12:03;;;;;;;8.48;3.83;;;12.80;99.90;;;;;;4958490;28;20559;-87
2022/07/02 01:14:33;;;;;;;5.75;3.88;;;12.80;99.90;;;;;;4941385;28;20150;-87
2022/07/02 01:16:58;;;;;;;8.48;4.18;;;12.80;99.90;;;;;;4935031;28;20070;-85
2022/07/02 01:19:25;;;;;;;5.30;3.70;;;12.80;99.90;;;;;;4933994;28;20129;-85
2022/07/02 01:22:08;;;;;;;7.78;3.75;;;12.80;99.90;;;;;;4939467;28;20034;-87
2022/07/02 01:24:34;;;;;;;6.15;4.10;;;12.80;99.90;;;;;;4936072;28;20433;-86
2022/07/02 01:27:00;;;;;;;7.07;4.05;;;12.80;99.90;;;;;;4937624;28;20035;-86
2022/07/02 01:29:28;;;;;;;7.25;3.60;;;12.80;99.90;;;;;;4949504;28;20034;-87
2022/07/02 01:31:54;;;;;;;6.28;3.95;;;12.70;99.90;;;;;;4938186;28;20050;-87
2022/07/02 01:34:20;;;;;;;6.28;4.07;;;12.70;99.90;;;;;;4952599;28;20474;-87
2022/07/02 01:36:46;;;;;;;5.18;3.85;;;12.70;99.90;;;;;;4955920;28;20046;-86
2022/07/02 01:39:12;;;;;;;6.60;3.88;;;12.60;99.90;;;;;;4937794;28;20580;-86
2022/07/02 01:41:40;;;;;;;6.78;3.45;;;12.60;99.90;;;;;;4937785;28;20122;-86
2022/07/02 01:44:09;;;;;;;6.85;3.63;;;12.60;99.90;;;;;;4948926;28;20340;-86
2022/07/02 01:46:35;;;;;;;7.78;4.13;;;12.60;99.90;;;;;;4942172;28;20038;-87
2022/07/02 01:49:02;;;;;;;6.43;4.00;;;12.60;99.90;;;;;;4956358;28;20041;-86
2022/07/02 01:51:27;;;;;;;6.68;3.60;;;12.60;99.90;;;;;;4943788;28;20078;-86
2022/07/02 01:53:53;;;;;;;9.68;3.83;;;12.50;99.90;;;;;;4942523;28;20089;-86
2022/07/02 01:56:19;;;;;;;10.02;4.05;;;12.50;99.90;;;;;;4941743;28;20123;-86
2022/07/02 01:58:48;;;;;;;8.80;4.03;;;12.50;99.90;;;;;;4956983;28;20372;-87
2022/07/02 02:01:14;;;;;;;4.97;3.90;;;12.40;99.90;;;;;;4958509;28;20229;-86
2022/07/02 02:03:39;;;;;;;10.95;4.20;;;12.40;1.00;;;;;;4941264;28;20035;-86
2022/07/02 02:06:08;;;;;;;7.35;4.00;;;12.40;1.00;;;;;;4958038;28;20050;-86
2022/07/02 02:08:34;;;;;;;7.82;3.60;;;12.40;1.00;;;;;;4940270;28;20042;-86
2022/07/02 02:10:59;;;;;;;9.05;4.50;;;12.40;99.90;;;;;;4957215;28;20035;-86
2022/07/02 02:13:28;;;;;;;7.18;3.92;;;12.40;1.00;;;;;;4940382;28;20145;-87
2022/07/02 02:15:53;;;;;;;5.22;3.78;;;12.40;1.00;;;;;;4955686;28;20082;-86
2022/07/02 02:18:19;;;;;;;6.68;4.43;;;12.40;1.00;;;;;;4948127;28;20090;-86
2022/07/02 02:20:45;;;;;;;7.53;4.20;;;12.40;1.00;;;;;;4937733;28;20034;-86
2022/07/02 02:23:10;;;;;;;7.75;4.32;;;12.40;1.00;;;;;;4956818;28;20261;-86
2022/07/02 02:25:36;;;;;;;7.22;3.92;;;12.40;1.00;;;;;;4938854;28;20039;-85
2022/07/02 02:28:02;;;;;;;7.75;3.80;;;12.40;1.00;;;;;;4954209;28;20136;-86
2022/07/02 02:30:27;;;;;;;5.88;3.83;;;12.40;1.00;;;;;;4953738;28;20057;-86
2022/07/02 02:32:56;;;;;;;6.93;4.32;;;12.40;1.00;;;;;;4955007;28;20035;-85
2022/07/02 02:35:22;;;;;;;7.53;4.10;;;12.40;1.00;;;;;;4954246;28;20510;-86
2022/07/02 02:37:48;;;;;;;10.35;4.60;;;12.40;1.00;;;;;;4944945;28;20039;-86
2022/07/02 02:40:14;;;;;;;12.07;4.20;;;12.40;1.00;;;;;;4953100;28;20043;-85
2022/07/02 02:42:39;;;;;;;5.85;4.13;;;12.40;1.00;;;;;;4960117;28;20126;-86
2022/07/02 02:45:05;;;;;;;7.18;4.10;;;12.40;1.00;;;;;;4943881;28;20042;-86
2022/07/02 02:47:31;;;;;;;8.63;4.20;;;12.40;1.00;;;;;;4957423;28;20456;-86
2022/07/02 02:49:57;;;;;;;8.93;4.32;;;12.40;1.00;;;;;;4944014;28;20038;-86
2022/07/02 02:52:23;;;;;;;10.48;4.40;;;12.30;99.90;;;;;;4944651;28;20066;-86
2022/07/02 02:54:48;;;;;;;9.07;4.60;;;12.30;1.00;;;;;;4959910;28;20306;-86
2022/07/02 02:57:14;;;;;;;10.80;4.32;;;12.30;1.00;;;;;;4974207;28;20074;-86
2022/07/02 02:59:40;;;;;;;5.85;4.70;;;12.30;1.00;;;;;;4945347;28;20062;-86
2022/07/02 03:02:07;;;;;;;10.18;4.57;;;12.30;1.00;;;;;;4944520;28;20138;-85
2022/07/02 03:04:33;;;;;;;9.68;4.63;;;12.40;1.00;;;;;;4954477;28;20118;-86
2022/07/02 03:06:59;;;;;;;7.07;4.68;;;12.40;1.00;;;;;;4946391;28;20038;-85
2022/07/02 03:09:24;;;;;;;6.57;4.65;;;12.50;1.00;;;;;;4959391;28;20035;-86
2022/07/02 03:11:50;;;;;;;10.43;4.93;;;12.40;1.00;;;;;;4958149;28;20049;-86
2022/07/02 03:14:16;;;;;;;7.35;4.88;;;12.40;1.00;;;;;;4959206;28;20043;-85
2022/07/02 03:16:41;;;;;;;8.80;5.18;;;12.40;1.00;;;;;;4941211;28;20045;-85
2022/07/02 03:19:07;;;;;;;11.27;5.50;;;12.40;1.00;;;;;;4942889;28;20342;-85
2022/07/02 03:21:33;;;;;;;11.40;4.90;;;12.40;1.00;;;;;;4944490;28;20046;-85
2022/07/02 03:23:58;;;;;;;8.05;4.72;;;12.40;1.00;;;;;;4957091;28;20095;-86
2022/07/02 03:26:24;;;;;;;7.45;4.95;;;12.40;1.00;;;;;;4941920;28;20065;-85
2022/07/02 03:28:50;;;;;;;8.10;4.72;;;12.40;11.50;;;;;;4942194;28;20173;-86
2022/07/02 03:31:15;;;;;;;9.48;5.05;;;12.40;1.00;;;;;;4943413;28;20124;-85
2022/07/02 03:33:44;;;;;;;8.13;4.85;;;12.40;14.20;;;;;;4944154;28;20338;-85
2022/07/02 03:36:11;;;;;;;7.78;4.95;;;12.50;1.00;;;;;;4939631;28;20400;-85
2022/07/02 03:38:38;;;;;;;10.23;5.15;;;12.40;1.00;;;;;;4957703;28;20278;-86
2022/07/02 03:41:06;;;;;;;8.38;5.28;;;12.40;1.00;;;;;;4959517;28;20042;-86
2022/07/02 03:43:32;;;;;;;6.57;5.40;;;12.40;1.00;;;;;;4951577;28;20066;-86
2022/07/02 03:46:01;;;;;;;7.72;5.15;;;12.50;1.00;;;;;;4942017;28;20033;-85
2022/07/02 03:48:26;;;;;;;10.02;5.43;;;12.40;1.00;;;;;;4941710;28;20049;-86
2022/07/02 03:50:52;;;;;;;7.65;4.90;;;12.40;1.00;;;;;;4959149;28;20035;-84
2022/07/02 03:53:18;;;;;;;12.18;5.75;;;12.40;1.00;;;;;;4943760;28;20089;-85
2022/07/02 03:55:44;;;;;;;9.13;5.85;;;12.50;1.00;;;;;;4951554;28;20054;-85
2022/07/02 03:58:12;;;;;;;9.57;5.32;;;12.50;1.00;;;;;;4956635;28;20574;-86
2022/07/02 04:00:39;;;;;;;8.75;5.00;;;12.50;1.00;;;;;;4942269;28;20134;-86
2022/07/02 04:03:04;;;;;;;8.35;5.47;;;12.50;1.00;;;;;;4941694;28;20078;-86
2022/07/02 04:05:30;;;;;;;7.82;5.97;;;12.50;1.00;;;;;;4959652;28;20195;-86
2022/07/02 04:07:56;;;;;;;7.68;5.43;;;12.60;1.00;;;;;;4943371;28;20367;-86
2022/07/02 04:10:22;;;;;;;8.93;5.20;;;12.60;1.00;;;;;;4941603;28;20031;-86
2022/07/02 04:12:50;;;;;;;9.70;5.68;;;12.70;1.00;;;;;;4940687;28;20042;-86
2022/07/02 04:15:16;;;;;;;8.02;5.88;;;12.80;1.00;;;;;;4954417;28;20042;-86
2022/07/02 04:17:42;;;;;;;7.22;5.72;;;12.80;1.00;;;;;;4941683;28;20458;-86
2022/07/02 04:20:08;;;;;;;9.60;5.68;;;12.90;1.00;;;;;;4943019;28;20110;-85
2022/07/02 04:22:34;;;;;;;11.15;6.30;;;13.00;1.00;;;;;;4942742;28;20101;-86
2022/07/02 04:25:00;;;;;;;9.68;6.10;;;13.10;1.00;;;;;;4942764;28;20026;-86
2022/07/02 04:27:28;;;;;;;10.40;6.18;;;13.20;1.00;;;;;;4937910;28;20062;-85
2022/07/02 04:29:54;;;;;;;8.63;5.93;;;13.30;1.00;;;;;;4943618;28;20030;-86
2022/07/02 04:32:20;;;;;;;6.82;5.93;;;13.30;1.00;;;;;;4938711;28;20045;-85
2022/07/02 04:34:48;;;;;;;10.65;6.40;;;13.50;1.00;;;;;;4958150;28;20043;-85
2022/07/02 04:37:14;;;;;;;10.90;6.88;;;13.60;1.00;;;;;;4942305;28;20113;-85
2022/07/02 04:39:39;;;;;;;9.45;6.70;;;13.70;99.90;;;;;;4941340;28;20038;-85
2022/07/02 04:42:05;;;;;;;13.98;7.78;;;13.70;99.90;;;;;;4942525;28;20103;-86
2022/07/02 04:44:31;;;;;;;8.27;7.13;;;13.80;99.90;;;;;;4956602;28;20398;-84
2022/07/02 04:47:08;;;;;;;9.02;6.70;;;13.80;99.90;;;;;;4941927;28;20101;-86
2022/07/02 04:49:33;;;;;;;8.35;7.05;;;13.90;99.90;;;;;;4970036;28;20126;-86
2022/07/02 04:51:59;;;;;;;10.68;7.45;;;13.90;99.90;;;;;;4941739;28;20493;-86
2022/07/02 04:54:25;;;;;;;10.73;6.97;;;14.00;99.90;;;;;;4950367;28;20050;-86
2022/07/02 04:56:51;;;;;;;9.00;7.13;;;14.10;99.90;;;;;;4942987;28;20153;-86
2022/07/02 04:59:18;;;;;;;10.52;7.22;;;14.10;99.90;;;;;;4940555;28;20332;-85
2022/07/02 05:01:43;;;;;;;10.02;8.25;;;14.30;99.90;;;;;;4955418;28;20039;-86
2022/07/02 05:04:09;;;;;;;11.13;7.55;;;14.20;99.90;;;;;;4940204;28;20717;-86
2022/07/02 05:06:35;;;;;;;10.05;7.88;;;14.30;99.90;;;;;;4969354;28;20035;-86
2022/07/02 05:09:01;;;;;;;10.45;7.60;;;14.50;99.90;;;;;;4957487;28;20031;-85
2022/07/02 05:11:26;;;;;;;10.95;7.88;;;14.40;99.90;;;;;;4941592;28;20453;-86
2022/07/02 05:13:52;;;;;;;9.98;7.90;;;14.60;99.90;;;;;;4953479;28;20042;-86
2022/07/02 05:16:18;;;;;;;10.68;7.30;;;14.70;99.90;;;;;;4941672;28;20034;-86
2022/07/02 05:18:44;;;;;;;10.15;7.72;;;14.80;99.90;;;;;;4940771;28;20051;-86
2022/07/02 05:21:13;;;;;;;10.55;7.65;;;14.80;99.90;;;;;;4938408;28;20043;-87
2022/07/02 05:23:42;;;;;;;13.32;7.15;;;14.90;99.90;;;;;;4941925;28;20047;-86
2022/07/02 05:26:08;;;;;;;10.50;7.40;;;14.90;99.90;;;;;;4941282;28;20038;-86
2022/07/02 05:28:33;;;;;;;10.77;7.00;;;15.00;99.90;;;;;;4943268;28;20125;-87
2022/07/02 05:30:59;;;;;;;7.82;6.55;;;15.10;99.90;;;;;;4941224;28;20427;-86
2022/07/02 05:33:25;;;;;;;10.38;6.82;;;15.20;99.90;;;;;;4942771;28;20410;-86
2022/07/02 05:35:51;;;;;;;9.90;6.10;;;15.20;99.90;;;;;;4941278;28;20050;-87
2022/07/02 05:38:17;;;;;;;9.40;6.57;;;15.30;99.90;;;;;;4940342;28;20035;-86
2022/07/02 05:40:43;;;;;;;11.70;6.07;;;15.40;99.90;;;;;;4939401;28;20394;-86
2022/07/02 05:43:09;;;;;;;10.85;5.57;;;15.50;99.90;;;;;;4941027;28;20150;-86
2022/07/02 05:45:35;;;;;;;9.30;5.40;;;15.50;99.90;;;;;;4955125;28;20139;-86
2022/07/02 05:48:01;;;;;;;7.05;5.22;;;15.60;99.90;;;;;;4943070;28;20533;-86
2022/07/02 05:50:27;;;;;;;5.97;5.00;;;15.60;99.90;;;;;;4950062;28;20038;-86
2022/07/02 05:52:54;;;;;;;7.95;4.85;;;15.60;99.90;;;;;;4940560;28;20452;-86
2022/07/02 05:55:19;;;;;;;7.28;5.38;;;15.70;99.90;;;;;;4955119;28;20146;-87
2022/07/02 05:57:48;;;;;;;9.95;5.10;;;15.70;99.90;;;;;;4948611;28;20508;-86
2022/07/02 06:00:14;;;;;;;7.93;4.97;;;15.80;99.90;;;;;;4941458;28;20055;-87
2022/07/02 06:02:40;;;;;;;7.10;5.53;;;15.90;99.90;;;;;;4941024;28;20479;-87
2022/07/02 06:07:51;;;;;;;8.43;5.27;;;16.10;99.90;;;;;;4970283;28;20043;-87
2022/07/02 06:10:20;;;;;;;7.13;4.90;;;16.10;99.90;;;;;;4942681;28;20031;-87
2022/07/02 06:12:52;;;;;;;9.52;4.80;;;16.10;99.90;;;;;;4945035;28;20038;-87
2022/07/02 06:15:21;;;;;;;6.60;4.68;;;16.20;99.90;;;;;;4973367;28;20078;-88
2022/07/02 06:17:47;;;;;;;9.23;4.60;;;16.30;99.90;;;;;;4946295;28;20541;-87
2022/07/02 06:20:14;;;;;;;5.53;4.15;;;16.20;99.90;;;;;;4944523;28;20506;-86
2022/07/02 06:22:40;;;;;;;7.57;4.60;;;16.30;99.90;;;;;;4954214;28;20292;-87
2022/07/02 06:25:07;;;;;;;8.45;4.28;;;16.40;99.90;;;;;;4945260;28;20274;-87
2022/07/02 06:27:34;;;;;;;10.75;4.20;;;16.50;99.90;;;;;;4960147;28;20042;-87
2022/07/02 06:30:06;;;;;;;7.75;3.95;;;16.60;99.90;;;;;;4941604;28;20131;-88
2022/07/02 06:32:32;;;;;;;8.57;3.90;;;16.60;99.90;;;;;;4945066;28;20129;-88
2022/07/02 06:34:58;;;;;;;5.13;3.92;;;16.70;99.90;;;;;;4941626;28;20042;-87
2022/07/02 06:37:24;;;;;;;5.80;3.50;;;16.80;93.50;;;;;;4971105;28;20121;-87
2022/07/02 06:39:53;;;;;;;8.18;3.63;;;16.90;99.90;;;;;;4943040;28;20367;-88
2022/07/02 06:42:19;;;;;;;7.03;3.85;;;17.00;99.50;;;;;;4953941;28;20423;-87
2022/07/02 06:44:46;;;;;;;5.75;3.70;;;17.00;77.20;;;;;;4937433;28;20035;-88
2022/07/02 06:47:15;;;;;;;5.43;3.47;;;17.00;41.80;;;;;;4944106;28;20550;-87
2022/07/02 06:49:42;;;;;;;6.15;3.20;;;17.10;19.10;;;;;;4950291;28;20109;-87
2022/07/02 06:52:08;;;;;;;4.10;3.20;;;17.10;55.70;;;;;;4955807;28;20047;-88
2022/07/02 06:54:35;;;;;;;9.05;3.63;;;17.30;54.60;;;;;;4943577;28;20800;-87
2022/07/02 06:57:01;;;;;;;5.90;3.08;;;17.30;84.70;;;;;;4942614;28;20575;-87
2022/07/02 06:59:27;;;;;;;6.93;3.08;;;17.40;1.00;;;;;;4942684;28;20490;-87
2022/07/02 07:01:53;;;;;;;6.43;3.20;;;17.40;1.00;;;;;;4946499;28;20035;-88
2022/07/02 07:04:18;;;;;;;6.80;3.00;;;17.50;1.00;;;;;;4943759;28;20446;-89
2022/07/02 07:06:47;;;;;;;6.38;3.10;;;17.60;1.00;;;;;;4945012;28;20150;-88
2022/07/02 07:09:13;;;;;;;4.32;2.65;;;17.50;1.00;;;;;;4937633;28;20106;-88
2022/07/02 07:11:39;;;;;;;6.82;2.35;;;17.60;1.00;;;;;;4933629;28;20097;-88
2022/07/02 07:14:05;;;;;;;6.10;2.70;;;17.60;1.00;;;;;;4956843;28;20133;-88
2022/07/02 07:16:31;;;;;;;4.55;2.90;;;17.70;1.00;;;;;;4938294;28;20055;-87
2022/07/02 07:19:01;;;;;;;5.53;2.40;;;17.70;1.00;;;;;;4954072;28;20039;-89
2022/07/02 07:21:30;;;;;;;5.32;2.90;;;17.90;1.00;;;;;;4952286;28;20043;-88
2022/07/02 07:23:56;;;;;;;6.82;2.90;;;17.80;1.00;;;;;;4935215;28;20079;-87
2022/07/02 07:26:22;;;;;;;4.70;2.42;;;17.90;1.00;;;;;;4942212;28;20053;-87
2022/07/02 07:28:48;;;;;;;3.53;2.10;;;17.80;1.00;;;;;;4941525;28;20212;-87
2022/07/02 07:31:16;;;;;;;5.28;2.60;;;17.90;1.00;;;;;;4974760;28;20035;-88
2022/07/02 07:33:42;;;;;;;3.92;2.40;;;18.10;1.00;;;;;;4955157;28;20042;-88
2022/07/02 07:36:07;;;;;;;4.97;2.40;;;18.20;1.00;;;;;;4952565;28;20043;-88
2022/07/02 07:38:33;;;;;;;4.72;2.10;;;18.30;1.00;;;;;;4944600;28;20034;-88
2022/07/02 07:40:59;;;;;;;5.70;1.98;;;18.30;1.00;;;;;;4949177;28;20035;-88
2022/07/02 07:43:25;;;;;;;7.63;2.47;;;18.50;1.00;;;;;;4940366;28;20054;-88
2022/07/02 07:45:50;;;;;;;4.45;2.08;;;18.50;1.00;;;;;;4955247;28;20035;-87
2022/07/02 07:48:16;;;;;;;5.57;2.47;;;18.50;1.00;;;;;;4942875;28;20150;-88
2022/07/02 07:50:42;;;;;;;5.57;2.08;;;18.70;1.00;;;;;;4949701;28;20050;-88
2022/07/02 07:53:10;;;;;;;6.57;2.70;;;18.60;1.00;;;;;;4960607;28;20108;-88
2022/07/02 07:55:36;;;;;;;5.88;2.22;;;18.50;1.00;;;;;;4941946;28;20047;-87
2022/07/02 07:58:04;;;;;;;6.57;2.20;;;18.60;1.00;;;;;;4937441;28;20120;-87
2022/07/02 08:00:30;;;;;;;4.78;1.80;;;18.70;1.00;;;;;;4942380;28;20039;-87
2022/07/02 08:02:55;;;;;;;4.05;1.98;;;18.80;99.90;;;;;;4940648;28;20031;-87
2022/07/02 08:05:21;;;;;;;3.53;1.70;;;18.80;99.90;;;;;;4941190;28;20047;-88
2022/07/02 08:07:47;;;;;;;4.18;1.70;;;18.90;1.00;;;;;;4942635;28;20039;-88
2022/07/02 08:10:13;;;;;;;6.28;1.77;;;18.90;99.90;;;;;;4943440;28;20317;-86
2022/07/02 08:12:40;;;;;;;3.33;1.48;;;19.00;1.00;;;;;;4957204;28;20035;-88
2022/07/02 08:15:07;;;;;;;2.83;1.20;;;19.20;1.00;;;;;;4937037;28;20396;-87
2022/07/02 08:17:36;;;;;;;3.80;1.60;;;19.20;99.90;;;;;;4950652;28;20321;-87
2022/07/02 08:20:09;;;;;;;3.05;1.38;;;19.30;99.90;;;;;;4952524;28;20042;-87
2022/07/02 08:22:35;;;;;;;2.60;1.40;;;19.40;99.90;;;;;;4933770;28;20360;-87
2022/07/02 08:25:03;;;;;;;4.03;1.45;;;19.40;99.90;;;;;;4940385;28;20031;-87
2022/07/02 08:27:31;;;;;;;2.60;1.33;;;19.60;99.90;;;;;;4930814;28;20266;-88
2022/07/02 08:29:56;;;;;;;4.40;1.52;;;19.50;99.90;;;;;;4949661;28;20050;-87
2022/07/02 08:32:22;;;;;;;2.20;1.30;;;19.70;99.90;;;;;;4938545;28;20425;-87
2022/07/02 08:34:48;;;;;;;3.13;1.33;;;19.50;99.90;;;;;;4940236;28;20216;-87
2022/07/02 08:37:15;;;;;;;3.15;1.35;;;19.70;99.90;;;;;;4940016;28;20281;-87
2022/07/02 08:39:41;;;;;;;2.47;1.20;;;19.90;99.90;;;;;;4939919;28;20410;-87
2022/07/02 08:42:09;;;;;;;3.63;1.35;;;19.90;99.90;;;;;;4940469;28;20517;-87
2022/07/02 08:44:35;;;;;;;2.17;1.25;;;20.00;99.90;;;;;;4936224;28;20039;-86
2022/07/02 08:47:06;;;;;;;1.40;1.10;;;19.90;99.90;;;;;;4954569;28;20038;-86
2022/07/02 08:49:35;;;;;;;2.25;0.95;;;20.00;99.90;;;;;;4950713;28;20039;-87
2022/07/02 08:52:04;;;;;;;2.05;1.08;;;20.10;99.90;;;;;;4956888;28;20046;-87
2022/07/02 08:54:35;;;;;;;1.27;0.80;;;20.30;99.90;;;;;;4958640;28;20119;-87
2022/07/02 08:57:03;;;;;;;2.13;0.70;;;20.30;99.90;;;;;;4937900;28;20050;-86
2022/07/02 08:59:32;;;;;;;1.15;0.80;;;20.50;99.90;;;;;;4936524;28;20097;-87
2022/07/02 09:02:02;;;;;;;1.13;0.80;;;20.50;99.90;;;;;;4935203;28;20275;-86
2022/07/02 09:04:32;;;;;;;1.20;0.73;;;20.50;99.90;;;;;;4946761;28;20042;-86
2022/07/02 09:07:04;;;;;;;1.42;1.00;;;20.50;99.90;;;;;;4935122;28;20382;-87
2022/07/02 09:09:33;;;;;;;2.67;0.77;;;20.60;99.90;;;;;;4956665;28;20035;-86
2022/07/02 09:11:58;;;;;;;2.10;0.73;;;20.90;99.90;;;;;;4957130;28;20035;-87
2022/07/02 09:14:24;;;;;;;4.18;0.68;;;20.80;99.90;;;;;;4936479;28;20126;-86
2022/07/02 09:16:50;;;;;;;1.13;0.57;;;21.00;99.90;;;;;;4951524;28;20141;-86
2022/07/02 09:19:20;;;;;;;1.90;0.80;;;21.20;99.90;;;;;;4937815;28;20038;-87
2022/07/02 09:21:51;;;;;;;2.55;0.90;;;21.30;99.90;;;;;;4949769;28;20066;-86
2022/07/02 09:24:32;;;;;;;2.38;0.80;;;21.10;99.90;;;;;;4938543;28;20066;-87
2022/07/02 09:27:00;;;;;;;3.13;0.70;;;21.10;99.90;;;;;;4952353;28;20031;-87
2022/07/02 09:29:26;;;;;;;1.52;0.70;;;21.50;99.90;;;;;;4936467;28;20035;-87
2022/07/02 09:31:52;;;;;;;1.15;0.50;;;21.30;99.90;;;;;;4936197;28;20502;-87
2022/07/02 09:34:27;;;;;;;1.73;0.60;;;21.40;99.90;;;;;;4946641;28;20066;-87
2022/07/02 09:36:54;;;;;;;2.72;0.50;;;21.60;99.90;;;;;;4939349;28;20263;-86
2022/07/02 09:39:30;;;;;;;1.70;0.35;;;21.50;99.90;;;;;;4940773;28;20048;-87
2022/07/02 09:42:00;;;;;;;0.47;0.43;;;21.70;99.90;;;;;;4938267;28;20047;-86
2022/07/02 09:44:26;;;;;;;2.47;0.63;;;21.80;99.90;;;;;;4957941;28;20026;-86
2022/07/02 09:46:52;;;;;;;1.63;0.50;;;21.60;99.90;;;;;;4940899;28;20068;-85
2022/07/02 09:49:18;;;;;;;1.67;0.40;;;21.80;99.90;;;;;;4971274;28;20039;-87
2022/07/02 09:51:52;;;;;;;0.47;0.30;;;21.70;99.90;;;;;;4961238;28;20093;-85
2022/07/02 09:54:23;;;;;;;1.47;0.53;;;21.70;99.90;;;;;;4944972;28;20859;-83
2022/07/02 09:56:57;;;;;;;0.93;0.50;;;22.00;99.90;;;;;;4973467;28;20050;-82
2022/07/02 09:59:24;;;;;;;0.88;0.50;;;22.10;99.90;;;;;;4945254;28;20035;-83
2022/07/02 10:01:50;;;;;;;1.08;0.50;;;22.20;99.90;;;;;;4944733;28;20047;-85
2022/07/02 10:04:26;;;;;;;1.40;0.73;;;22.10;99.90;;;;;;4944381;28;20042;-87
2022/07/02 10:06:52;;;;;;;2.80;0.80;;;22.10;99.90;;;;;;4961836;28;20458;-87
2022/07/02 10:09:21;;;;;;;1.40;0.80;;;22.20;99.90;;;;;;4945526;28;20106;-86
2022/07/02 10:11:47;;;;;;;1.55;0.90;;;22.40;99.90;;;;;;4940909;28;20081;-87
2022/07/02 10:14:16;;;;;;;2.25;0.52;;;22.60;99.90;;;;;;4944410;28;20121;-86
2022/07/02 10:16:42;;;;;;;0.68;0.60;;;22.70;99.90;;;;;;4958509;28;20200;-84
2022/07/02 10:19:10;;;;;;;1.95;0.60;;;22.90;99.90;;;;;;4944730;28;20419;-87
2022/07/02 10:21:39;;;;;;;1.95;0.40;;;23.00;99.90;;;;;;4960907;28;20049;-86
2022/07/02 10:24:07;;;;;;;2.05;0.50;;;22.70;99.90;;;;;;4945066;28;20034;-87
2022/07/02 10:26:33;;;;;;;2.67;0.80;;;22.70;99.90;;;;;;4944760;28;20278;-87
2022/07/02 10:29:03;;;;;;;1.38;0.50;;;22.70;99.90;;;;;;4953908;28;20073;-87
2022/07/02 10:31:41;;;;;;;1.92;0.50;;;22.80;99.90;;;;;;4944435;28;20569;-86
2022/07/02 10:34:16;;;;;;;2.25;0.57;;;22.60;99.90;;;;;;4957158;28;20573;-87
2022/07/02 10:36:42;;;;;;;;;;;22.60;99.90;;;;;;4943594;28;20202;-87
2022/07/02 10:39:08;;;;;;;1.38;0.70;;;22.80;99.90;;;;;;4944434;28;19922;-86
2022/07/02 10:41:33;;;;;;;1.17;0.50;;;22.80;99.90;;;;;;4961360;28;20664;-85
2022/07/02 10:44:00;;;;;;;0.90;0.60;;;23.10;99.90;;;;;;4955694;28;20177;-87
2022/07/02 10:46:33;;;;;;;2.03;0.70;;;23.10;99.90;;;;;;4945353;28;20574;-87
2022/07/02 10:48:59;;;;;;;1.45;0.65;;;22.90;99.90;;;;;;4943158;28;20076;-86
2022/07/02 10:51:27;;;;;;;0.85;0.47;;;23.10;99.90;;;;;;4959825;28;20410;-86
2022/07/02 10:54:00;;;;;;;2.30;0.70;;;22.90;99.90;;;;;;4941864;28;20513;-86
2022/07/02 10:56:28;;;;;;;1.65;0.75;;;23.40;99.90;;;;;;4941286;28;20061;-86
2022/07/02 10:58:53;;;;;;;0.77;0.60;;;23.20;99.90;;;;;;4957759;28;20047;-86
2022/07/02 11:01:21;;;;;;;1.73;0.70;;;23.40;99.90;;;;;;4941126;28;20050;-87
2022/07/02 11:03:56;;;;;;;1.08;0.45;;;23.30;99.90;;;;;;4957361;28;20062;-88
2022/07/02 11:06:26;;;;;;;;;;;23.70;99.90;;;;;;4945725;28;20050;-88
2022/07/02 11:08:54;;;;;;;2.20;0.50;;;23.60;99.90;;;;;;4959377;28;20380;-88
2022/07/02 11:11:38;;;;;;;2.50;0.60;;;22.90;99.90;;;;;;4969106;28;20089;-89
2022/07/02 11:14:17;;;;;;;0.88;0.45;;;22.70;99.90;;;;;;4942247;28;20139;-88
2022/07/02 11:16:50;;;;;;;1.05;0.60;;;22.50;99.90;;;;;;4959007;28;20105;-88
2022/07/02 11:19:30;;;;;;;3.00;0.90;;;22.60;99.90;;;;;;4960126;28;20038;-88
2022/07/02 11:22:02;;;;;;;1.58;0.52;;;23.20;99.90;;;;;;4955329;28;20043;-89
2022/07/02 11:24:32;;;;;;;0.65;0.40;;;23.30;99.90;;;;;;4945996;28;20031;-88
2022/07/02 11:26:59;;;;;;;2.00;0.50;;;23.00;99.90;;;;;;4955339;28;20038;-88
2022/07/02 11:29:25;;;;;;;1.40;0.60;;;23.40;99.90;;;;;;4942582;28;20472;-89
2022/07/02 11:31:53;;;;;;;2.90;0.70;;;23.00;99.90;;;;;;4938675;28;20522;-89
2022/07/02 11:34:24;;;;;;;1.77;0.55;;;23.60;99.90;;;;;;4942585;28;20050;-88
2022/07/02 11:36:50;;;;;;;1.73;0.55;;;24.60;99.90;;;;;;4970123;28;20039;-88
2022/07/02 11:39:22;;;;;;;2.80;0.60;;;24.70;99.90;;;;;;4943066;28;20040;-89
2022/07/02 11:41:49;;;;;;;3.15;0.80;;;25.30;99.90;;;;;;4943382;28;20235;-88
2022/07/02 11:44:26;;;;;;;1.70;0.52;;;25.30;99.90;;;;;;4941532;28;20035;-89
2022/07/02 11:46:54;;;;;;;0.68;0.50;;;25.00;99.90;;;;;;4943623;28;20038;-88
2022/07/02 11:49:25;;;;;;;2.05;0.43;;;25.20;99.90;;;;;;4956770;28;20094;-88
2022/07/02 11:51:53;;;;;;;2.25;0.80;;;25.10;99.90;;;;;;4941977;28;20053;-88
2022/07/02 11:54:20;;;;;;;3.85;0.73;;;24.70;99.90;;;;;;4944313;28;20513;-88
2022/07/02 11:56:47;;;;;;;2.30;0.43;;;24.30;99.90;;;;;;4951982;28;20110;-88
2022/07/02 11:59:18;;;;;;;1.80;0.68;;;24.30;99.90;;;;;;4943516;28;20054;-88
2022/07/02 12:01:45;;;;;;;2.30;0.57;;;24.80;99.90;;;;;;4959652;28;20141;-88
2022/07/02 12:04:14;;;;;;;1.17;0.65;;;24.60;99.90;;;;;;4937068;28;20039;-88
2022/07/02 12:06:42;;;;;;;1.58;0.80;;;24.70;99.90;;;;;;4973728;28;20309;-88
2022/07/02 12:09:11;;;;;;;0.40;0.40;;;24.70;99.90;;;;;;4950190;28;20038;-88
2022/07/02 12:11:38;;;;;;;1.33;0.50;;;25.60;99.90;;;;;;4940265;28;20089;-88
2022/07/02 12:14:06;;;;;;;0.75;0.40;;;25.20;99.90;;;;;;4968063;28;20039;-88
2022/07/02 12:16:33;;;;;;;1.60;0.50;;;25.10;99.90;;;;;;4942563;28;20054;-89
2022/07/02 12:19:05;;;;;;;1.35;0.40;;;24.50;99.90;;;;;;4958482;28;20456;-88
2022/07/02 12:21:44;;;;;;;1.52;0.60;;;24.60;99.90;;;;;;4949674;28;20191;-88
2022/07/02 12:24:24;;;;;;;0.70;0.50;;;24.70;99.90;;;;;;4942959;28;20438;-89
2022/07/02 12:27:07;;;;;;;0.80;0.40;;;24.10;99.90;;;;;;4952791;28;20345;-89
2022/07/02 12:29:53;;;;;;;0.77;0.52;;;24.40;99.90;;;;;;4954091;28;20118;-89
2022/07/02 12:32:39;;;;;;;1.35;0.60;;;24.30;99.90;;;;;;4941594;28;20426;-87
2022/07/02 12:35:08;;;;;;;3.90;0.65;;;24.70;99.90;;;;;;4942355;28;20054;-90
2022/07/02 12:37:38;;;;;;;0.98;0.40;;;25.10;99.90;;;;;;4944116;28;20183;-90
2022/07/02 12:40:10;;;;;;;1.45;0.60;;;25.10;99.90;;;;;;4942320;28;20100;-89
2022/07/02 12:42:47;;;;;;;2.45;0.60;;;25.30;99.90;;;;;;4950127;28;20102;-88
2022/07/02 12:45:36;;;;;;;1.20;0.40;;;25.30;99.90;;;;;;4945380;28;20138;-89
2022/07/02 12:48:13;;;;;;;1.80;0.57;;;25.50;99.90;;;;;;4942803;28;20040;-89
2022/07/02 12:50:41;;;;;;;4.97;0.80;;;25.30;99.90;;;;;;4940525;28;20151;-89
2022/07/02 12:53:15;;;;;;;1.55;0.70;;;25.40;99.90;;;;;;4949749;28;20047;-88
2022/07/02 12:55:55;;;;;;;3.85;0.75;;;25.20;99.90;;;;;;4974304;28;20207;-89